Time;durP1;ratioP1;P1;durP2;ratioP2;P2;SDS_P1;SDS_P2;PMS_P1;PMS_P2;Temp;Humidity;BMP_temperature;BMP_pressure;BME280_temperature;BME280_humidity;BME280_pressure;Samples;Min_cycle;Max_cycle;Signal;HPM_P1;HPM_P2
2023/03/21 00:01:14;;;;;;;87.30;52.00;;;;;;;;;;6313998;28;20012;-80
2023/03/21 00:04:15;;;;;;;93.90;47.03;;;;;;;;;;6314385;28;20102;-81
2023/03/21 00:07:15;;;;;;;89.80;47.07;;;;;;;;;;6311362;28;20012;-80
2023/03/21 00:10:15;;;;;;;87.70;51.20;;;;;;;;;;6311111;28;20089;-81
2023/03/21 00:13:15;;;;;;;75.40;39.43;;;;;;;;;;6307563;28;20103;-81
2023/03/21 00:16:17;;;;;;;89.20;50.87;;;;;;;;;;6304462;28;20020;-80
2023/03/21 00:19:19;;;;;;;76.10;44.47;;;;;;;;;;6307114;28;20393;-81
2023/03/21 00:22:19;;;;;;;72.85;41.67;;;;;;;;;;6294164;28;20013;-81
2023/03/21 00:25:20;;;;;;;74.13;41.87;;;;;;;;;;6300398;28;20453;-79
2023/03/21 00:28:20;;;;;;;70.27;40.07;;;;;;;;;;6299409;28;20024;-80
2023/03/21 00:31:20;;;;;;;70.37;40.23;;;;;;;;;;6316669;28;20020;-79
2023/03/21 00:34:20;;;;;;;83.07;43.27;;;;;;;;;;6314762;28;20036;-80
2023/03/21 00:37:21;;;;;;;74.78;39.38;;;;;;;;;;6300577;28;20044;-79
2023/03/21 00:40:21;;;;;;;73.83;39.70;;;;;;;;;;6303946;28;20008;-80
2023/03/21 00:43:28;;;;;;;74.93;42.70;;;;;;;;;;6314324;28;20501;-79
2023/03/21 00:46:29;;;;;;;70.03;39.38;;;;;;;;;;6314710;28;20080;-79
2023/03/21 00:49:37;;;;;;;72.43;40.13;;;;;;;;;;6309827;28;20020;-79
2023/03/21 00:52:37;;;;;;;92.82;46.58;;;;;;;;;;6313577;28;20478;-80
2023/03/21 00:55:37;;;;;;;68.63;43.10;;;;;;;;;;6312241;28;20043;-80
2023/03/21 00:58:37;;;;;;;96.57;50.23;;;;;;;;;;6304450;28;20555;-85
2023/03/21 01:01:38;;;;;;;91.57;48.65;;;;;;;;;;6309774;28;20135;-85
2023/03/21 01:04:38;;;;;;;79.13;44.13;;;;;;;;;;6305445;28;20031;-84
2023/03/21 01:07:39;;;;;;;73.60;41.57;;;;;;;;;;6305142;28;20033;-84
2023/03/21 01:10:40;;;;;;;66.37;38.80;;;;;;;;;;6310778;28;20470;-82
2023/03/21 01:13:40;;;;;;;66.72;38.10;;;;;;;;;;6305731;28;20038;-83
2023/03/21 01:16:41;;;;;;;79.80;43.80;;;;;;;;;;6308567;28;20017;-83
2023/03/21 01:19:42;;;;;;;64.00;35.50;;;;;;;;;;6304491;28;20036;-85
2023/03/21 01:22:42;;;;;;;66.23;34.90;;;;;;;;;;6314892;28;20365;-85
2023/03/21 01:25:42;;;;;;;55.67;32.37;;;;;;;;;;6301510;28;20021;-85
2023/03/21 01:28:44;;;;;;;50.57;29.80;;;;;;;;;;6314237;28;20030;-84
2023/03/21 01:31:45;;;;;;;;;;;;;;;;;;6289488;28;20644;-87
2023/03/21 01:34:45;;;;;;;49.65;28.40;;;;;;;;;;6307631;28;19927;-88
2023/03/21 01:37:47;;;;;;;52.00;28.70;;;;;;;;;;6315482;28;20040;-89
2023/03/21 01:40:48;;;;;;;52.22;29.27;;;;;;;;;;6321131;28;20021;-90
2023/03/21 01:43:49;;;;;;;51.73;28.07;;;;;;;;;;6322321;28;20027;-88
2023/03/21 01:46:51;;;;;;;55.83;27.00;;;;;;;;;;6312421;28;20167;-88
2023/03/21 01:49:53;;;;;;;52.00;25.88;;;;;;;;;;6320637;28;20023;-87
2023/03/21 01:52:53;;;;;;;49.78;27.50;;;;;;;;;;6319837;28;20081;-86
2023/03/21 01:55:58;;;;;;;62.50;31.33;;;;;;;;;;6309054;28;20482;-87
2023/03/21 01:59:11;;;;;;;64.65;33.63;;;;;;;;;;6305591;28;20141;-86
2023/03/21 02:02:16;;;;;;;66.18;35.75;;;;;;;;;;6301581;28;20012;-85
2023/03/21 02:05:19;;;;;;;72.32;39.13;;;;;;;;;;6319545;28;20020;-85
2023/03/21 02:08:20;;;;;;;53.00;30.13;;;;;;;;;;6305574;28;20459;-84
2023/03/21 02:11:21;;;;;;;55.27;28.67;;;;;;;;;;6304551;28;20031;-85
2023/03/21 02:14:21;;;;;;;56.50;31.70;;;;;;;;;;6303759;28;20048;-84
2023/03/21 02:17:29;;;;;;;52.03;29.03;;;;;;;;;;6313054;28;20047;-84
2023/03/21 02:20:51;;;;;;;58.15;28.50;;;;;;;;;;6317303;28;20096;-83
2023/03/21 02:23:51;;;;;;;61.03;30.07;;;;;;;;;;6293120;28;20025;-84
2023/03/21 02:26:54;;;;;;;57.33;31.90;;;;;;;;;;6306902;28;20373;-83
2023/03/21 02:29:57;;;;;;;52.70;27.38;;;;;;;;;;6308088;28;20558;-84
2023/03/21 02:33:18;;;;;;;62.65;31.70;;;;;;;;;;6314406;28;20051;-85
2023/03/21 02:36:37;;;;;;;52.20;30.23;;;;;;;;;;6305477;28;20018;-83
2023/03/21 02:39:52;;;;;;;52.53;29.90;;;;;;;;;;6299668;28;20141;-83
2023/03/21 02:42:55;;;;;;;60.33;31.92;;;;;;;;;;6302433;28;20021;-83
2023/03/21 02:45:58;;;;;;;55.42;29.30;;;;;;;;;;6307267;28;20418;-82
2023/03/21 02:49:02;;;;;;;54.83;26.98;;;;;;;;;;6306048;28;20016;-83
2023/03/21 02:52:02;;;;;;;54.30;28.27;;;;;;;;;;6312071;28;20470;-83
2023/03/21 02:55:04;;;;;;;55.50;30.50;;;;;;;;;;6311828;28;20095;-84
2023/03/21 02:58:05;;;;;;;57.75;30.75;;;;;;;;;;6300949;28;20019;-84
2023/03/21 03:01:07;;;;;;;52.22;28.80;;;;;;;;;;6301925;28;20474;-85
2023/03/21 03:04:18;;;;;;;53.83;27.98;;;;;;;;;;6313882;28;20027;-84
2023/03/21 03:07:25;;;;;;;57.58;30.98;;;;;;;;;;6311913;28;20025;-85
2023/03/21 03:10:25;;;;;;;64.55;33.05;;;;;;;;;;6305542;28;20043;-85
2023/03/21 03:13:31;;;;;;;61.83;28.57;;;;;;;;;;6308239;28;20036;-85
2023/03/21 03:16:43;;;;;;;66.35;32.28;;;;;;;;;;6317914;28;20028;-83
2023/03/21 03:19:47;;;;;;;65.75;34.75;;;;;;;;;;6306742;28;20048;-83
2023/03/21 03:22:47;;;;;;;72.47;36.20;;;;;;;;;;6311015;28;20020;-83
2023/03/21 03:26:03;;;;;;;64.73;32.57;;;;;;;;;;6317120;28;20373;-83
2023/03/21 03:29:06;;;;;;;66.05;35.08;;;;;;;;;;6312395;28;20430;-83
2023/03/21 03:32:12;;;;;;;60.47;31.85;;;;;;;;;;6300070;28;20024;-83
2023/03/21 03:35:15;;;;;;;53.72;28.35;;;;;;;;;;6301308;28;20043;-82
2023/03/21 03:38:16;;;;;;;59.60;28.45;;;;;;;;;;6313173;28;20469;-82
2023/03/21 03:41:18;;;;;;;59.00;33.20;;;;;;;;;;6301596;28;20385;-79
2023/03/21 03:44:18;;;;;;;;;;;;;;;;;;6297908;28;20020;-82
2023/03/21 03:47:21;;;;;;;75.07;41.10;;;;;;;;;;6288551;28;19913;-82
2023/03/21 03:50:34;;;;;;;67.97;35.72;;;;;;;;;;6298008;28;20017;-82
2023/03/21 03:53:37;;;;;;;72.45;38.05;;;;;;;;;;6298790;28;20027;-82
2023/03/21 03:56:38;;;;;;;66.82;36.53;;;;;;;;;;6310742;28;20466;-82
2023/03/21 03:59:42;;;;;;;67.00;39.00;;;;;;;;;;6303164;28;20024;-81
2023/03/21 04:02:43;;;;;;;72.07;35.08;;;;;;;;;;6305002;28;20028;-81
2023/03/21 04:05:47;;;;;;;70.28;32.53;;;;;;;;;;6298247;28;20028;-81
2023/03/21 04:08:47;;;;;;;78.68;35.83;;;;;;;;;;6306141;28;20524;-81
2023/03/21 04:11:48;;;;;;;127.47;35.03;;;;;;;;;;6292910;28;20024;-81
2023/03/21 04:14:48;;;;;;;69.57;35.03;;;;;;;;;;6302809;28;20028;-81
2023/03/21 04:17:49;;;;;;;77.60;35.20;;;;;;;;;;6285881;28;20548;-81
2023/03/21 04:20:50;;;;;;;75.30;35.23;;;;;;;;;;6304547;28;20051;-81
2023/03/21 04:23:53;;;;;;;60.87;30.50;;;;;;;;;;6317165;28;20397;-80
2023/03/21 04:26:53;;;;;;;68.45;35.42;;;;;;;;;;6298372;28;20091;-81
2023/03/21 04:29:55;;;;;;;78.53;36.47;;;;;;;;;;6309232;28;20028;-81
2023/03/21 04:32:59;;;;;;;68.50;36.63;;;;;;;;;;6307661;28;20521;-81
2023/03/21 04:36:01;;;;;;;86.82;38.13;;;;;;;;;;6312872;28;20850;-81
2023/03/21 04:39:03;;;;;;;87.85;45.25;;;;;;;;;;6308219;28;20036;-83
2023/03/21 04:42:04;;;;;;;81.70;43.03;;;;;;;;;;6309912;28;20099;-82
2023/03/21 04:45:04;;;;;;;79.53;39.73;;;;;;;;;;6295402;28;20180;-83
2023/03/21 04:48:05;;;;;;;78.77;40.47;;;;;;;;;;6309145;28;20469;-83
2023/03/21 04:51:05;;;;;;;76.23;38.83;;;;;;;;;;6314359;28;20077;-85
2023/03/21 04:54:05;;;;;;;79.37;41.00;;;;;;;;;;6303331;28;20036;-85
2023/03/21 04:57:06;;;;;;;83.77;45.07;;;;;;;;;;6321871;28;20023;-84
2023/03/21 05:00:12;;;;;;;97.38;50.05;;;;;;;;;;6313819;28;20027;-84
2023/03/21 05:03:18;;;;;;;88.05;44.30;;;;;;;;;;6309586;28;20028;-84
2023/03/21 05:06:18;;;;;;;84.85;39.33;;;;;;;;;;6301191;28;20499;-83
2023/03/21 05:09:19;;;;;;;75.00;37.90;;;;;;;;;;6305712;28;20012;-82
2023/03/21 05:12:19;;;;;;;60.93;35.03;;;;;;;;;;6300908;28;20020;-83
2023/03/21 05:15:19;;;;;;;78.30;36.07;;;;;;;;;;6299371;28;20825;-83
2023/03/21 05:18:23;;;;;;;65.13;34.47;;;;;;;;;;6300135;28;20514;-83
2023/03/21 05:21:28;;;;;;;74.88;38.90;;;;;;;;;;6301996;28;20016;-83
2023/03/21 05:24:28;;;;;;;68.60;38.97;;;;;;;;;;6318768;28;20023;-83
2023/03/21 05:27:34;;;;;;;86.10;42.97;;;;;;;;;;6309358;28;20533;-84
2023/03/21 05:30:34;;;;;;;65.82;34.10;;;;;;;;;;6309817;28;20024;-83
2023/03/21 05:33:35;;;;;;;71.33;37.80;;;;;;;;;;6313570;28;20047;-83
2023/03/21 05:36:36;;;;;;;76.43;38.40;;;;;;;;;;6316359;28;20020;-83
2023/03/21 05:39:36;;;;;;;67.70;35.97;;;;;;;;;;6311576;28;20020;-83
2023/03/21 05:42:36;;;;;;;72.13;37.30;;;;;;;;;;6311617;28;20012;-83
2023/03/21 05:45:36;;;;;;;61.47;32.60;;;;;;;;;;6293232;28;20401;-82
2023/03/21 05:48:37;;;;;;;71.53;39.10;;;;;;;;;;6293664;28;20044;-83
2023/03/21 05:51:37;;;;;;;70.97;36.90;;;;;;;;;;6315705;28;20016;-82
2023/03/21 05:54:37;;;;;;;68.50;35.53;;;;;;;;;;6298841;28;20028;-82
2023/03/21 05:57:39;;;;;;;65.10;35.80;;;;;;;;;;6304532;28;20049;-83
2023/03/21 06:00:39;;;;;;;80.22;42.90;;;;;;;;;;6312923;28;20508;-82
2023/03/21 06:03:40;;;;;;;75.73;40.57;;;;;;;;;;6307359;28;20481;-83
2023/03/21 06:06:40;;;;;;;78.53;39.43;;;;;;;;;;6317313;28;20113;-82
2023/03/21 06:09:40;;;;;;;78.47;41.37;;;;;;;;;;6318671;28;20053;-80
2023/03/21 06:12:42;;;;;;;67.00;35.50;;;;;;;;;;6303887;28;20067;-82
2023/03/21 06:15:42;;;;;;;70.25;36.70;;;;;;;;;;6308604;28;20021;-82
2023/03/21 06:18:42;;;;;;;69.87;35.03;;;;;;;;;;6297698;28;20469;-82
2023/03/21 06:21:43;;;;;;;72.63;37.13;;;;;;;;;;6322634;28;20015;-82
2023/03/21 06:24:43;;;;;;;80.67;42.50;;;;;;;;;;6299933;28;20030;-82
2023/03/21 06:27:43;;;;;;;81.23;40.20;;;;;;;;;;6295307;28;20024;-82
2023/03/21 06:30:43;;;;;;;77.50;35.87;;;;;;;;;;6310015;28;20386;-82
2023/03/21 06:33:44;;;;;;;81.30;36.58;;;;;;;;;;6306688;28;20047;-82
2023/03/21 06:36:45;;;;;;;78.03;34.73;;;;;;;;;;6308408;28;20016;-83
2023/03/21 06:39:45;;;;;;;75.57;37.33;;;;;;;;;;6315966;28;20069;-85
2023/03/21 06:42:46;;;;;;;94.30;46.73;;;;;;;;;;6304813;28;20017;-82
2023/03/21 06:45:46;;;;;;;88.60;43.30;;;;;;;;;;6291819;28;20032;-84
2023/03/21 06:48:46;;;;;;;90.47;45.13;;;;;;;;;;6301264;28;20016;-86
2023/03/21 06:51:46;;;;;;;85.87;40.53;;;;;;;;;;6322084;28;20012;-86
2023/03/21 06:54:49;;;;;;;76.13;38.70;;;;;;;;;;6334745;28;20028;-82
2023/03/21 06:57:50;;;;;;;79.80;34.90;;;;;;;;;;6324265;28;20020;-85
2023/03/21 07:00:50;;;;;;;83.93;36.60;;;;;;;;;;6312639;28;20028;-83
2023/03/21 07:03:52;;;;;;;73.23;37.00;;;;;;;;;;6328513;28;20024;-84
2023/03/21 07:06:52;;;;;;;76.28;33.92;;;;;;;;;;6317140;28;20030;-82
2023/03/21 07:09:53;;;;;;;74.17;36.97;;;;;;;;;;6321233;28;20028;-83
2023/03/21 07:12:53;;;;;;;74.77;34.90;;;;;;;;;;6316633;28;20107;-82
2023/03/21 07:15:53;;;;;;;99.00;48.23;;;;;;;;;;6299754;28;20035;-81
2023/03/21 07:18:54;;;;;;;107.90;57.00;;;;;;;;;;6291495;28;20070;-81
2023/03/21 07:21:54;;;;;;;93.27;51.30;;;;;;;;;;6292440;28;20033;-82
2023/03/21 07:24:54;;;;;;;82.77;40.57;;;;;;;;;;6293591;28;20020;-81
2023/03/21 07:27:55;;;;;;;84.70;43.50;;;;;;;;;;6311419;28;20024;-82
2023/03/21 07:31:00;;;;;;;75.83;41.13;;;;;;;;;;6318647;28;20017;-81
2023/03/21 07:34:01;;;;;;;74.38;38.47;;;;;;;;;;6300138;28;20051;-82
2023/03/21 07:37:01;;;;;;;79.07;41.20;;;;;;;;;;6313469;28;20823;-80
2023/03/21 07:40:08;;;;;;;75.53;39.10;;;;;;;;;;6318168;28;20016;-82
2023/03/21 07:43:08;;;;;;;88.00;42.50;;;;;;;;;;6311773;28;20016;-82
2023/03/21 07:46:09;;;;;;;97.67;50.90;;;;;;;;;;6315862;28;20031;-80
2023/03/21 07:49:09;;;;;;;76.27;42.00;;;;;;;;;;6302351;28;20023;-81
2023/03/21 07:52:09;;;;;;;71.13;37.47;;;;;;;;;;6308097;28;20556;-80
2023/03/21 07:55:10;;;;;;;75.20;42.63;;;;;;;;;;6292009;28;20390;-80
2023/03/21 07:58:10;;;;;;;67.50;36.27;;;;;;;;;;6317126;28;20482;-80
2023/03/21 08:01:10;;;;;;;71.83;39.03;;;;;;;;;;6308722;28;20409;-80
2023/03/21 08:04:11;;;;;;;67.37;33.47;;;;;;;;;;6315286;28;20024;-80
2023/03/21 08:07:11;;;;;;;66.57;32.07;;;;;;;;;;6312143;28;20042;-81
2023/03/21 08:10:11;;;;;;;61.77;33.07;;;;;;;;;;6320297;28;20031;-82
2023/03/21 08:13:12;;;;;;;69.73;33.60;;;;;;;;;;6310354;28;20027;-82
2023/03/21 08:16:12;;;;;;;56.77;32.07;;;;;;;;;;6320967;28;20004;-82
2023/03/21 08:19:13;;;;;;;63.25;36.95;;;;;;;;;;6295467;28;20028;-81
2023/03/21 08:22:13;;;;;;;60.60;34.30;;;;;;;;;;6305321;28;20016;-81
2023/03/21 08:25:14;;;;;;;66.20;34.67;;;;;;;;;;6303612;28;20047;-81
2023/03/21 08:28:15;;;;;;;56.90;30.45;;;;;;;;;;6319059;28;20027;-82
2023/03/21 08:31:16;;;;;;;62.20;35.30;;;;;;;;;;6319749;28;20470;-81
2023/03/21 08:34:18;;;;;;;;;;;;;;;;;;6322732;28;20509;-82
2023/03/21 08:37:18;;;;;;;59.70;33.00;;;;;;;;;;6319929;28;19907;-82
2023/03/21 08:40:19;;;;;;;59.43;33.40;;;;;;;;;;6315071;28;20782;-82
2023/03/21 08:43:19;;;;;;;67.60;32.77;;;;;;;;;;6312312;28;20012;-82
2023/03/21 08:46:20;;;;;;;60.47;32.60;;;;;;;;;;6308028;28;20262;-82
2023/03/21 08:49:21;;;;;;;60.73;32.10;;;;;;;;;;6294912;28;20068;-82
2023/03/21 08:52:21;;;;;;;63.72;35.33;;;;;;;;;;6317447;28;20016;-82
2023/03/21 08:55:21;;;;;;;63.63;34.70;;;;;;;;;;6317780;28;20019;-82
2023/03/21 08:58:21;;;;;;;89.17;45.13;;;;;;;;;;6325870;28;20448;-82
2023/03/21 09:01:22;;;;;;;55.17;30.30;;;;;;;;;;6312814;28;20008;-82
2023/03/21 09:04:24;;;;;;;89.63;47.03;;;;;;;;;;6322496;28;20510;-83
2023/03/21 09:07:25;;;;;;;80.35;45.10;;;;;;;;;;6317521;28;20019;-84
2023/03/21 09:10:25;;;;;;;69.77;39.63;;;;;;;;;;6324910;28;20016;-84
2023/03/21 09:13:25;;;;;;;83.57;39.53;;;;;;;;;;6309043;28;20468;-84
2023/03/21 09:16:25;;;;;;;105.03;58.13;;;;;;;;;;6308273;28;20409;-84
2023/03/21 09:19:26;;;;;;;60.28;33.25;;;;;;;;;;6331055;28;20049;-80
2023/03/21 09:22:26;;;;;;;58.67;33.60;;;;;;;;;;6324076;28;20022;-84
2023/03/21 09:25:29;;;;;;;65.60;34.63;;;;;;;;;;6308123;28;20043;-85
2023/03/21 09:28:30;;;;;;;57.63;32.78;;;;;;;;;;6311628;28;20028;-85
2023/03/21 09:31:30;;;;;;;59.40;32.63;;;;;;;;;;6305441;28;20031;-87
2023/03/21 09:34:31;;;;;;;58.27;33.30;;;;;;;;;;6330551;28;20044;-86
2023/03/21 09:37:32;;;;;;;67.53;35.53;;;;;;;;;;6290116;28;20020;-86
2023/03/21 09:40:38;;;;;;;62.70;35.42;;;;;;;;;;6303960;28;20490;-85
2023/03/21 09:43:39;;;;;;;58.95;32.33;;;;;;;;;;6308976;28;20397;-86
2023/03/21 09:46:47;;;;;;;60.43;34.03;;;;;;;;;;6320021;28;20016;-86
2023/03/21 09:49:50;;;;;;;59.45;32.80;;;;;;;;;;6314383;28;20050;-86
2023/03/21 09:53:16;;;;;;;54.17;29.70;;;;;;;;;;6310271;28;20028;-85
2023/03/21 09:56:16;;;;;;;75.32;39.08;;;;;;;;;;6313338;28;20053;-86
2023/03/21 09:59:40;;;;;;;61.20;34.33;;;;;;;;;;6300220;28;20466;-84
2023/03/21 10:02:46;;;;;;;60.25;32.28;;;;;;;;;;6316762;28;20549;-86
2023/03/21 10:05:47;;;;;;;51.00;30.70;;;;;;;;;;6297418;28;20044;-86
2023/03/21 10:08:47;;;;;;;54.70;31.67;;;;;;;;;;6316974;28;20463;-85
2023/03/21 10:11:51;;;;;;;51.93;27.17;;;;;;;;;;6318047;28;20024;-84
2023/03/21 10:14:52;;;;;;;52.88;30.70;;;;;;;;;;6313258;28;20123;-84
2023/03/21 10:17:53;;;;;;;;;;;;;;;;;;6311183;28;20414;-84
2023/03/21 10:20:53;;;;;;;47.40;27.63;;;;;;;;;;6313376;28;19908;-84
2023/03/21 10:23:56;;;;;;;64.00;33.13;;;;;;;;;;6310145;28;20307;-84
2023/03/21 10:26:56;;;;;;;64.45;34.63;;;;;;;;;;6301111;28;20051;-83
2023/03/21 10:29:56;;;;;;;43.40;24.53;;;;;;;;;;6295462;28;20054;-82
2023/03/21 10:33:01;;;;;;;46.97;24.07;;;;;;;;;;6297961;28;20089;-83
2023/03/21 10:36:04;;;;;;;51.17;27.90;;;;;;;;;;6291325;28;20035;-84
2023/03/21 10:39:05;;;;;;;44.92;26.20;;;;;;;;;;6291486;28;20024;-84
2023/03/21 10:42:09;;;;;;;43.85;25.77;;;;;;;;;;6307545;28;20020;-84
2023/03/21 10:45:13;;;;;;;46.42;26.00;;;;;;;;;;6302202;28;20020;-84
2023/03/21 10:48:14;;;;;;;41.42;25.25;;;;;;;;;;6301971;28;20449;-83
2023/03/21 10:51:17;;;;;;;43.27;25.60;;;;;;;;;;6308097;28;20032;-84
2023/03/21 10:54:18;;;;;;;44.83;25.88;;;;;;;;;;6301782;28;20024;-83
2023/03/21 10:57:19;;;;;;;;;;;;;;;;;;6318614;28;20426;-83
2023/03/21 11:00:21;;;;;;;39.55;23.45;;;;;;;;;;6315398;28;19934;-83
2023/03/21 11:03:22;;;;;;;;;;;;;;;;;;6303871;28;20032;-81
2023/03/21 11:06:31;;;;;;;42.97;23.05;;;;;;;;;;6305555;28;20289;-83
2023/03/21 11:09:44;;;;;;;41.33;23.80;;;;;;;;;;6318247;28;20038;-83
2023/03/21 11:12:46;;;;;;;41.60;22.95;;;;;;;;;;6318654;28;20027;-83
2023/03/21 11:15:46;;;;;;;43.50;23.92;;;;;;;;;;6280512;28;20024;-83
2023/03/21 11:18:50;;;;;;;46.25;26.42;;;;;;;;;;6315719;28;20082;-83
2023/03/21 11:21:51;;;;;;;43.40;24.48;;;;;;;;;;6313378;28;20024;-83
2023/03/21 11:24:52;;;;;;;45.23;25.27;;;;;;;;;;6306102;28;20321;-82
2023/03/21 11:27:54;;;;;;;44.47;25.27;;;;;;;;;;6311193;28;20029;-83
2023/03/21 11:30:55;;;;;;;46.22;24.92;;;;;;;;;;6314814;28;20020;-83
2023/03/21 11:33:56;;;;;;;45.22;27.45;;;;;;;;;;6275674;28;20499;-83
2023/03/21 11:37:00;;;;;;;43.47;25.00;;;;;;;;;;6262422;28;20072;-83
2023/03/21 11:40:00;;;;;;;;;;;;;;;;;;6262205;28;20025;-83
2023/03/21 11:43:23;;;;;;;38.92;24.90;;;;;;;;;;6260487;28;19905;-82
2023/03/21 11:46:25;;;;;;;38.42;22.52;;;;;;;;;;6248849;28;20048;-82
2023/03/21 11:49:26;;;;;;;43.88;24.60;;;;;;;;;;6267107;28;20033;-83
2023/03/21 11:52:26;;;;;;;47.67;26.60;;;;;;;;;;6260323;28;20032;-83
2023/03/21 11:55:26;;;;;;;47.90;29.02;;;;;;;;;;6253142;28;20049;-84
2023/03/21 11:58:40;;;;;;;37.30;21.33;;;;;;;;;;6257851;28;20021;-84
2023/03/21 12:01:46;;;;;;;42.08;24.70;;;;;;;;;;6257318;28;20018;-83
2023/03/21 12:05:05;;;;;;;42.13;23.95;;;;;;;;;;6253291;28;20026;-84
2023/03/21 12:08:05;;;;;;;42.50;24.45;;;;;;;;;;6265127;28;20075;-83
2023/03/21 12:11:20;;;;;;;38.95;25.27;;;;;;;;;;6254841;28;20010;-84
2023/03/21 12:14:42;;;;;;;35.10;21.88;;;;;;;;;;6261209;28;20403;-81
2023/03/21 12:17:45;;;;;;;38.67;22.45;;;;;;;;;;6256698;28;20067;-83
2023/03/21 12:20:52;;;;;;;35.50;22.90;;;;;;;;;;6252501;28;20016;-83
2023/03/21 12:24:11;;;;;;;36.17;21.88;;;;;;;;;;6266258;28;20025;-84
2023/03/21 12:27:18;;;;;;;42.67;23.70;;;;;;;;;;6261679;28;20029;-83
2023/03/21 12:30:25;;;;;;;35.78;21.95;;;;;;;;;;6264073;28;20017;-83
2023/03/21 12:33:40;;;;;;;37.20;22.15;;;;;;;;;;6269841;28;20406;-84
2023/03/21 12:36:47;;;;;;;37.47;21.75;;;;;;;;;;6299243;28;20040;-81
2023/03/21 12:39:51;;;;;;;35.05;19.23;;;;;;;;;;6321587;28;20344;-83
2023/03/21 12:43:12;;;;;;;39.78;23.92;;;;;;;;;;6298051;28;20551;-82
2023/03/21 12:46:28;;;;;;;37.75;22.27;;;;;;;;;;6313826;28;20024;-82
2023/03/21 12:49:34;;;;;;;37.17;24.45;;;;;;;;;;6313933;28;20052;-83
2023/03/21 12:52:38;;;;;;;42.85;25.33;;;;;;;;;;6317896;28;20478;-87
2023/03/21 12:55:40;;;;;;;41.25;21.70;;;;;;;;;;6315435;28;20553;-85
2023/03/21 12:58:46;;;;;;;34.15;22.17;;;;;;;;;;6290774;28;20490;-85
2023/03/21 13:01:48;;;;;;;41.78;22.83;;;;;;;;;;6307727;28;20047;-84
2023/03/21 13:04:48;;;;;;;34.17;21.42;;;;;;;;;;6316541;28;20079;-85
2023/03/21 13:07:54;;;;;;;40.05;22.40;;;;;;;;;;6318812;28;20072;-84
2023/03/21 13:10:56;;;;;;;38.40;21.67;;;;;;;;;;6323400;28;20034;-84
2023/03/21 13:14:07;;;;;;;38.73;21.87;;;;;;;;;;6304830;28;20024;-85
2023/03/21 13:17:17;;;;;;;38.78;22.50;;;;;;;;;;6319508;28;20021;-88
2023/03/21 13:20:28;;;;;;;51.70;32.30;;;;;;;;;;6345636;28;20024;-87
2023/03/21 13:23:33;;;;;;;52.15;27.75;;;;;;;;;;6326096;28;20039;-89
2023/03/21 13:26:36;;;;;;;65.70;37.72;;;;;;;;;;6315549;28;20082;-91
2023/03/21 13:29:50;;;;;;;45.08;25.60;;;;;;;;;;6323890;28;20024;-88
2023/03/21 13:32:54;;;;;;;47.22;26.27;;;;;;;;;;6319784;28;20744;-88
2023/03/21 13:36:06;;;;;;;49.97;25.98;;;;;;;;;;6307610;28;20044;-88
2023/03/21 13:39:15;;;;;;;48.77;26.30;;;;;;;;;;6318666;28;20394;-89
2023/03/21 13:42:28;;;;;;;51.55;28.83;;;;;;;;;;6326033;28;20451;-87
2023/03/21 13:45:51;;;;;;;38.95;22.80;;;;;;;;;;6319409;28;20028;-88
2023/03/21 14:26:49;;;;;;;49.15;28.15;;;;;;;;;;6270909;28;20110;-85
2023/03/21 14:29:52;;;;;;;43.47;26.63;;;;;;;;;;6261896;28;20471;-86
2023/03/21 14:32:57;;;;;;;52.03;29.35;;;;;;;;;;6279937;28;20016;-86
2023/03/21 14:35:59;;;;;;;51.42;27.90;;;;;;;;;;6276157;28;20017;-86
2023/03/21 14:39:02;;;;;;;41.80;24.60;;;;;;;;;;6258876;28;20383;-88
2023/03/21 14:42:06;;;;;;;47.83;25.08;;;;;;;;;;6275142;28;20021;-85
2023/03/21 14:45:13;;;;;;;44.92;24.92;;;;;;;;;;6269795;28;20021;-85
2023/03/21 14:48:15;;;;;;;49.03;28.45;;;;;;;;;;6259016;28;20090;-85
2023/03/21 14:51:15;;;;;;;;;;;;;;;;;;6263600;28;20021;-86
2023/03/21 14:54:16;;;;;;;56.47;29.75;;;;;;;;;;6267864;28;19919;-86
2023/03/21 14:57:21;;;;;;;60.97;31.15;;;;;;;;;;6252960;28;20052;-83
2023/03/21 15:00:25;;;;;;;50.03;27.63;;;;;;;;;;6263291;28;20078;-84
2023/03/21 15:03:26;;;;;;;48.65;28.20;;;;;;;;;;6269915;28;20025;-84
2023/03/21 15:06:27;;;;;;;46.40;26.55;;;;;;;;;;6270640;28;20033;-85
2023/03/21 15:09:35;;;;;;;51.57;29.17;;;;;;;;;;6273425;28;20027;-85
2023/03/21 15:12:35;;;;;;;53.10;29.58;;;;;;;;;;6267614;28;20629;-84
2023/03/21 15:15:35;;;;;;;52.13;30.27;;;;;;;;;;6270175;28;20017;-82
2023/03/21 15:18:37;;;;;;;57.87;30.87;;;;;;;;;;6270855;28;20025;-84
2023/03/21 15:21:39;;;;;;;54.22;30.38;;;;;;;;;;6263437;28;20013;-85
2023/03/21 15:24:41;;;;;;;49.30;29.00;;;;;;;;;;6269455;28;20156;-84
2023/03/21 15:27:42;;;;;;;37.13;23.08;;;;;;;;;;6265631;28;20029;-85
2023/03/21 15:30:49;;;;;;;46.30;21.90;;;;;;;;;;6266760;28;20387;-85
2023/03/21 15:33:51;;;;;;;34.00;20.30;;;;;;;;;;6268284;28;20024;-84
2023/03/21 15:36:51;;;;;;;;;;;;;;;;;;6265346;28;20107;-84
2023/03/21 15:39:53;;;;;;;31.88;18.25;;;;;;;;;;6261546;28;19908;-85
2023/03/21 15:43:03;;;;;;;38.00;20.63;;;;;;;;;;6258822;28;20017;-84
2023/03/21 15:46:12;;;;;;;34.53;19.77;;;;;;;;;;6258343;28;20360;-84
2023/03/21 15:49:12;;;;;;;35.10;20.52;;;;;;;;;;6267101;28;20472;-85
2023/03/21 15:52:13;;;;;;;35.10;21.65;;;;;;;;;;6270330;28;20076;-85
2023/03/21 15:55:21;;;;;;;33.17;20.95;;;;;;;;;;6245444;28;20049;-83
2023/03/21 15:58:22;;;;;;;44.60;25.60;;;;;;;;;;6246361;28;20499;-82
2023/03/21 16:01:25;;;;;;;36.30;21.42;;;;;;;;;;6266630;28;20017;-82
2023/03/21 16:04:25;;;;;;;38.65;21.98;;;;;;;;;;6269813;28;20432;-83
2023/03/21 16:07:26;;;;;;;53.90;28.87;;;;;;;;;;6252607;28;20033;-83
2023/03/21 16:10:31;;;;;;;42.87;22.33;;;;;;;;;;6273079;28;20067;-84
2023/03/21 16:13:31;;;;;;;51.72;28.60;;;;;;;;;;6269664;28;20475;-84
2023/03/21 16:16:31;;;;;;;109.33;42.63;;;;;;;;;;6270258;28;20021;-84
2023/03/21 16:19:32;;;;;;;84.83;38.63;;;;;;;;;;6271163;28;20076;-83
2023/03/21 16:22:34;;;;;;;78.50;36.60;;;;;;;;;;6271956;28;20816;-85
2023/03/21 16:25:36;;;;;;;116.13;51.90;;;;;;;;;;6269460;28;20052;-85
2023/03/21 16:28:36;;;;;;;93.13;41.30;;;;;;;;;;6267782;28;20116;-85
2023/03/21 16:31:36;;;;;;;94.77;44.97;;;;;;;;;;6272502;28;20028;-85
2023/03/21 16:34:36;;;;;;;72.33;36.80;;;;;;;;;;6252274;28;20419;-84
2023/03/21 16:37:37;;;;;;;74.10;35.83;;;;;;;;;;6266538;28;20063;-85
2023/03/21 16:40:39;;;;;;;84.53;41.43;;;;;;;;;;6269022;28;20017;-85
2023/03/21 16:43:42;;;;;;;79.30;43.92;;;;;;;;;;6268272;28;20025;-82
2023/03/21 16:46:42;;;;;;;72.35;38.00;;;;;;;;;;6250981;28;20021;-85
2023/03/21 16:49:43;;;;;;;62.77;32.93;;;;;;;;;;6266095;28;20421;-85
2023/03/21 16:52:44;;;;;;;59.57;33.87;;;;;;;;;;6258034;28;20027;-83
2023/03/21 16:55:44;;;;;;;60.72;35.35;;;;;;;;;;6252118;28;20573;-85
2023/03/21 16:58:45;;;;;;;64.73;38.60;;;;;;;;;;6270125;28;20017;-85
2023/03/21 17:01:46;;;;;;;72.80;48.63;;;;;;;;;;6271352;28;20025;-85
2023/03/21 17:04:47;;;;;;;66.00;41.55;;;;;;;;;;6264083;28;20013;-85
2023/03/21 17:07:47;;;;;;;67.23;38.57;;;;;;;;;;6255667;28;20480;-85
2023/03/21 17:10:48;;;;;;;64.77;39.37;;;;;;;;;;6273085;28;20027;-84
2023/03/21 17:13:49;;;;;;;74.73;43.77;;;;;;;;;;6263054;28;20545;-84
2023/03/21 17:16:49;;;;;;;81.13;46.58;;;;;;;;;;6270450;28;20017;-87
2023/03/21 17:19:49;;;;;;;82.67;48.47;;;;;;;;;;6280532;28;20024;-88
2023/03/21 17:22:50;;;;;;;79.53;48.13;;;;;;;;;;6273350;28;20020;-87
2023/03/21 17:25:50;;;;;;;74.93;45.50;;;;;;;;;;6254113;28;20106;-86
2023/03/21 17:28:51;;;;;;;82.70;47.93;;;;;;;;;;6253151;28;20021;-87
2023/03/21 17:31:51;;;;;;;62.93;35.27;;;;;;;;;;6257933;28;20021;-88
2023/03/21 17:34:53;;;;;;;110.27;60.67;;;;;;;;;;6254639;28;20487;-86
2023/03/21 17:37:57;;;;;;;77.20;48.90;;;;;;;;;;6273722;28;20048;-86
2023/03/21 17:40:58;;;;;;;75.75;44.92;;;;;;;;;;6271338;28;20025;-84
2023/03/21 17:43:58;;;;;;;64.72;37.72;;;;;;;;;;6271549;28;20032;-84
2023/03/21 17:46:59;;;;;;;67.90;38.63;;;;;;;;;;6271383;28;20028;-84
2023/03/21 17:49:59;;;;;;;61.47;35.10;;;;;;;;;;6270410;28;20020;-86
2023/03/21 17:53:00;;;;;;;56.87;31.80;;;;;;;;;;6274481;28;20426;-86
2023/03/21 17:56:00;;;;;;;60.87;33.37;;;;;;;;;;6253861;28;20051;-84
2023/03/21 17:59:02;;;;;;;62.03;34.23;;;;;;;;;;6270597;28;20522;-85
2023/03/21 18:02:02;;;;;;;57.10;31.50;;;;;;;;;;6273478;28;20021;-85
2023/03/21 18:05:02;;;;;;;53.83;31.13;;;;;;;;;;6270550;28;20117;-85
2023/03/21 18:08:02;;;;;;;52.20;30.17;;;;;;;;;;6267883;28;20028;-85
2023/03/21 18:11:03;;;;;;;63.73;33.40;;;;;;;;;;6270389;28;20021;-83
2023/03/21 18:14:03;;;;;;;66.10;36.07;;;;;;;;;;6254617;28;20452;-84
2023/03/21 18:17:03;;;;;;;71.20;38.83;;;;;;;;;;6250011;28;20029;-82
2023/03/21 18:20:08;;;;;;;62.27;34.60;;;;;;;;;;6270729;28;20020;-82
2023/03/21 18:23:09;;;;;;;59.38;35.85;;;;;;;;;;6273208;28;20364;-84
2023/03/21 18:26:10;;;;;;;73.27;38.20;;;;;;;;;;6242870;28;20045;-84